sensor_id;sensor_type;location;lat;lon;timestamp;pressure;altitude;pressure_sealevel;temperature;humidity
50380;BME280;37474;59.468;18.040;2023-11-22T00:02:09;102705.53;;;-7.39;100.00
50380;BME280;37474;59.468;18.040;2023-11-22T00:04:37;102704.84;;;-7.36;100.00
50380;BME280;37474;59.468;18.040;2023-11-22T00:07:05;102697.34;;;-7.51;100.00
50380;BME280;37474;59.468;18.040;2023-11-22T00:09:34;102706.81;;;-7.47;100.00
50380;BME280;37474;59.468;18.040;2023-11-22T00:12:04;102701.25;;;-7.56;100.00
50380;BME280;37474;59.468;18.040;2023-11-22T00:14:33;102695.09;;;-7.61;100.00
50380;BME280;37474;59.468;18.040;2023-11-22T00:17:02;102696.34;;;-7.69;100.00
50380;BME280;37474;59.468;18.040;2023-11-22T00:19:31;102710.75;;;-7.67;100.00
50380;BME280;37474;59.468;18.040;2023-11-22T00:21:59;102701.00;;;-7.92;100.00
50380;BME280;37474;59.468;18.040;2023-11-22T00:24:29;102709.31;;;-7.78;100.00
50380;BME280;37474;59.468;18.040;2023-11-22T00:26:57;102700.09;;;-7.78;100.00
50380;BME280;37474;59.468;18.040;2023-11-22T00:29:27;102712.16;;;-7.72;100.00
50380;BME280;37474;59.468;18.040;2023-11-22T00:31:55;102716.09;;;-7.92;100.00
50380;BME280;37474;59.468;18.040;2023-11-22T00:34:23;102714.09;;;-7.83;100.00
50380;BME280;37474;59.468;18.040;2023-11-22T00:36:52;102714.19;;;-7.81;100.00
50380;BME280;37474;59.468;18.040;2023-11-22T00:39:20;102697.50;;;-7.94;100.00
50380;BME280;37474;59.468;18.040;2023-11-22T00:41:49;102687.09;;;-8.00;100.00
50380;BME280;37474;59.468;18.040;2023-11-22T00:44:17;102704.47;;;-7.90;100.00
50380;BME280;37474;59.468;18.040;2023-11-22T00:46:47;102694.06;;;-7.96;100.00
50380;BME280;37474;59.468;18.040;2023-11-22T00:49:15;102680.34;;;-8.01;100.00
50380;BME280;37474;59.468;18.040;2023-11-22T00:51:43;102669.50;;;-8.00;100.00
50380;BME280;37474;59.468;18.040;2023-11-22T00:54:11;102670.47;;;-7.98;100.00
50380;BME280;37474;59.468;18.040;2023-11-22T00:56:40;102688.03;;;-7.83;100.00
50380;BME280;37474;59.468;18.040;2023-11-22T00:59:08;102680.00;;;-7.92;100.00
50380;BME280;37474;59.468;18.040;2023-11-22T01:01:36;102677.22;;;-7.97;100.00
50380;BME280;37474;59.468;18.040;2023-11-22T01:04:05;102669.75;;;-7.95;100.00
50380;BME280;37474;59.468;18.040;2023-11-22T01:06:34;102666.75;;;-8.19;100.00
50380;BME280;37474;59.468;18.040;2023-11-22T01:09:03;102675.50;;;-8.13;100.00
50380;BME280;37474;59.468;18.040;2023-11-22T01:11:31;102665.81;;;-8.21;100.00
50380;BME280;37474;59.468;18.040;2023-11-22T01:13:59;102669.94;;;-8.22;100.00
50380;BME280;37474;59.468;18.040;2023-11-22T01:16:27;102671.38;;;-8.27;100.00
50380;BME280;37474;59.468;18.040;2023-11-22T01:19:00;102659.16;;;-8.36;100.00
50380;BME280;37474;59.468;18.040;2023-11-22T01:21:30;102682.09;;;-8.30;100.00
50380;BME280;37474;59.468;18.040;2023-11-22T01:23:58;102672.53;;;-8.37;100.00
50380;BME280;37474;59.468;18.040;2023-11-22T01:26:26;102665.41;;;-8.59;100.00
50380;BME280;37474;59.468;18.040;2023-11-22T01:28:54;102669.66;;;-8.43;100.00
50380;BME280;37474;59.468;18.040;2023-11-22T01:31:22;102662.47;;;-8.37;100.00
50380;BME280;37474;59.468;18.040;2023-11-22T01:33:51;102671.38;;;-8.27;100.00
50380;BME280;37474;59.468;18.040;2023-11-22T01:36:19;102658.00;;;-8.56;100.00
50380;BME280;37474;59.468;18.040;2023-11-22T01:38:48;102661.16;;;-8.60;100.00
50380;BME280;37474;59.468;18.040;2023-11-22T01:41:17;102667.31;;;-8.40;100.00
50380;BME280;37474;59.468;18.040;2023-11-22T01:43:46;102649.00;;;-8.52;100.00
50380;BME280;37474;59.468;18.040;2023-11-22T01:46:21;102650.41;;;-8.42;100.00
50380;BME280;37474;59.468;18.040;2023-11-22T01:48:50;102655.75;;;-8.21;100.00
50380;BME280;37474;59.468;18.040;2023-11-22T01:51:20;102654.84;;;-8.22;100.00
50380;BME280;37474;59.468;18.040;2023-11-22T01:53:51;102644.88;;;-8.35;100.00
50380;BME280;37474;59.468;18.040;2023-11-22T01:56:20;102648.72;;;-8.27;100.00
50380;BME280;37474;59.468;18.040;2023-11-22T01:58:49;102653.00;;;-8.41;100.00
50380;BME280;37474;59.468;18.040;2023-11-22T02:01:18;102654.91;;;-8.37;100.00
50380;BME280;37474;59.468;18.040;2023-11-22T02:03:46;102627.50;;;-8.47;100.00
50380;BME280;37474;59.468;18.040;2023-11-22T02:06:15;102614.66;;;-8.52;100.00
50380;BME280;37474;59.468;18.040;2023-11-22T02:08:44;102599.88;;;-8.31;100.00
50380;BME280;37474;59.468;18.040;2023-11-22T02:11:17;102617.75;;;-8.26;100.00
50380;BME280;37474;59.468;18.040;2023-11-22T02:13:48;102617.19;;;-8.37;100.00
50380;BME280;37474;59.468;18.040;2023-11-22T02:16:17;102633.50;;;-8.29;100.00
50380;BME280;37474;59.468;18.040;2023-11-22T02:18:47;102623.66;;;-8.55;100.00
50380;BME280;37474;59.468;18.040;2023-11-22T02:21:16;102620.63;;;-8.49;100.00
50380;BME280;37474;59.468;18.040;2023-11-22T02:23:46;102596.78;;;-8.56;100.00
50380;BME280;37474;59.468;18.040;2023-11-22T02:26:14;102608.25;;;-8.61;100.00
50380;BME280;37474;59.468;18.040;2023-11-22T02:28:44;102606.84;;;-8.56;100.00
50380;BME280;37474;59.468;18.040;2023-11-22T02:31:13;102601.66;;;-8.59;100.00
50380;BME280;37474;59.468;18.040;2023-11-22T02:33:41;102606.69;;;-8.74;100.00
50380;BME280;37474;59.468;18.040;2023-11-22T02:36:09;102598.19;;;-8.76;100.00
50380;BME280;37474;59.468;18.040;2023-11-22T02:38:39;102602.03;;;-8.83;100.00
50380;BME280;37474;59.468;18.040;2023-11-22T02:41:10;102576.69;;;-8.86;100.00
50380;BME280;37474;59.468;18.040;2023-11-22T02:43:37;102595.25;;;-8.69;100.00
50380;BME280;37474;59.468;18.040;2023-11-22T02:46:06;102584.66;;;-8.78;100.00
50380;BME280;37474;59.468;18.040;2023-11-22T02:48:35;102572.72;;;-8.82;100.00
50380;BME280;37474;59.468;18.040;2023-11-22T02:51:04;102573.94;;;-8.75;100.00
50380;BME280;37474;59.468;18.040;2023-11-22T02:53:33;102579.91;;;-8.73;100.00
50380;BME280;37474;59.468;18.040;2023-11-22T02:56:01;102555.53;;;-8.89;100.00
50380;BME280;37474;59.468;18.040;2023-11-22T02:58:31;102572.25;;;-8.90;100.00
50380;BME280;37474;59.468;18.040;2023-11-22T03:00:59;102587.06;;;-9.09;100.00
50380;BME280;37474;59.468;18.040;2023-11-22T03:03:27;102562.81;;;-9.09;100.00
50380;BME280;37474;59.468;18.040;2023-11-22T03:05:56;102559.78;;;-9.03;100.00
50380;BME280;37474;59.468;18.040;2023-11-22T03:08:24;102561.88;;;-8.96;100.00
50380;BME280;37474;59.468;18.040;2023-11-22T03:10:52;102545.66;;;-8.71;100.00
50380;BME280;37474;59.468;18.040;2023-11-22T03:13:20;102529.72;;;-8.87;100.00
50380;BME280;37474;59.468;18.040;2023-11-22T03:15:50;102540.03;;;-8.82;100.00
50380;BME280;37474;59.468;18.040;2023-11-22T03:18:18;102528.00;;;-8.88;100.00
50380;BME280;37474;59.468;18.040;2023-11-22T03:20:48;102535.28;;;-8.92;100.00
50380;BME280;37474;59.468;18.040;2023-11-22T03:23:21;102537.16;;;-9.03;100.00
50380;BME280;37474;59.468;18.040;2023-11-22T03:25:49;102532.66;;;-8.94;100.00
50380;BME280;37474;59.468;18.040;2023-11-22T03:28:17;102526.25;;;-9.18;100.00
50380;BME280;37474;59.468;18.040;2023-11-22T03:30:45;102534.91;;;-9.13;100.00
50380;BME280;37474;59.468;18.040;2023-11-22T03:33:14;102527.28;;;-9.00;100.00
50380;BME280;37474;59.468;18.040;2023-11-22T03:35:42;102513.44;;;-9.08;100.00
50380;BME280;37474;59.468;18.040;2023-11-22T03:38:10;102507.63;;;-9.07;100.00
50380;BME280;37474;59.468;18.040;2023-11-22T03:40:38;102516.09;;;-9.05;100.00
50380;BME280;37474;59.468;18.040;2023-11-22T03:43:06;102534.81;;;-9.00;100.00
50380;BME280;37474;59.468;18.040;2023-11-22T03:45:36;102534.59;;;-9.05;100.00
50380;BME280;37474;59.468;18.040;2023-11-22T03:48:05;102534.91;;;-9.13;100.00
50380;BME280;37474;59.468;18.040;2023-11-22T03:50:34;102532.47;;;-9.12;100.00
50380;BME280;37474;59.468;18.040;2023-11-22T03:53:02;102521.06;;;-9.21;100.00
50380;BME280;37474;59.468;18.040;2023-11-22T03:55:31;102532.13;;;-9.18;100.00
50380;BME280;37474;59.468;18.040;2023-11-22T03:57:58;102527.81;;;-9.20;100.00
50380;BME280;37474;59.468;18.040;2023-11-22T04:00:27;102513.31;;;-9.24;100.00
50380;BME280;37474;59.468;18.040;2023-11-22T04:02:55;102521.38;;;-9.30;100.00
50380;BME280;37474;59.468;18.040;2023-11-22T04:05:26;102517.81;;;-9.34;100.00
50380;BME280;37474;59.468;18.040;2023-11-22T04:07:55;102542.69;;;-9.23;100.00
50380;BME280;37474;59.468;18.040;2023-11-22T04:10:24;102536.72;;;-9.25;100.00
50380;BME280;37474;59.468;18.040;2023-11-22T04:12:51;102539.03;;;-9.28;100.00
50380;BME280;37474;59.468;18.040;2023-11-22T04:15:20;102526.66;;;-9.25;100.00
50380;BME280;37474;59.468;18.040;2023-11-22T04:17:48;102502.34;;;-9.26;100.00
50380;BME280;37474;59.468;18.040;2023-11-22T04:20:17;102516.72;;;-9.09;100.00
50380;BME280;37474;59.468;18.040;2023-11-22T04:22:45;102499.81;;;-9.26;100.00
50380;BME280;37474;59.468;18.040;2023-11-22T04:25:15;102496.00;;;-9.20;100.00
50380;BME280;37474;59.468;18.040;2023-11-22T04:27:43;102491.06;;;-9.18;100.00
50380;BME280;37474;59.468;18.040;2023-11-22T04:30:11;102487.09;;;-9.29;100.00
50380;BME280;37474;59.468;18.040;2023-11-22T04:32:41;102493.13;;;-9.11;100.00
50380;BME280;37474;59.468;18.040;2023-11-22T04:35:10;102482.34;;;-9.10;100.00
50380;BME280;37474;59.468;18.040;2023-11-22T04:37:38;102468.72;;;-9.14;100.00
50380;BME280;37474;59.468;18.040;2023-11-22T04:40:07;102480.25;;;-8.88;100.00
50380;BME280;37474;59.468;18.040;2023-11-22T04:42:36;102460.81;;;-8.90;100.00
50380;BME280;37474;59.468;18.040;2023-11-22T04:45:05;102458.03;;;-8.95;100.00
50380;BME280;37474;59.468;18.040;2023-11-22T04:47:33;102451.28;;;-8.96;100.00
50380;BME280;37474;59.468;18.040;2023-11-22T04:50:02;102443.41;;;-9.02;100.00
50380;BME280;37474;59.468;18.040;2023-11-22T04:52:32;102436.47;;;-9.06;100.00
50380;BME280;37474;59.468;18.040;2023-11-22T04:55:00;102425.16;;;-9.14;100.00
50380;BME280;37474;59.468;18.040;2023-11-22T04:57:27;102409.47;;;-9.10;100.00
50380;BME280;37474;59.468;18.040;2023-11-22T04:59:57;102412.38;;;-8.88;100.00
50380;BME280;37474;59.468;18.040;2023-11-22T05:02:27;102411.13;;;-8.80;100.00
50380;BME280;37474;59.468;18.040;2023-11-22T05:04:55;102374.97;;;-8.98;100.00
50380;BME280;37474;59.468;18.040;2023-11-22T05:07:23;102399.19;;;-8.84;100.00
50380;BME280;37474;59.468;18.040;2023-11-22T05:09:51;102412.44;;;-8.71;100.00
50380;BME280;37474;59.468;18.040;2023-11-22T05:12:21;102391.69;;;-8.67;100.00
50380;BME280;37474;59.468;18.040;2023-11-22T05:14:49;102385.53;;;-8.72;100.00
50380;BME280;37474;59.468;18.040;2023-11-22T05:17:19;102397.56;;;-8.67;100.00
50380;BME280;37474;59.468;18.040;2023-11-22T05:19:47;102388.78;;;-8.90;100.00
50380;BME280;37474;59.468;18.040;2023-11-22T05:22:15;102391.03;;;-8.80;100.00
50380;BME280;37474;59.468;18.040;2023-11-22T05:24:45;102397.34;;;-8.71;100.00
50380;BME280;37474;59.468;18.040;2023-11-22T05:27:14;102422.63;;;-8.68;100.00
50380;BME280;37474;59.468;18.040;2023-11-22T05:29:42;102404.88;;;-8.71;100.00
50380;BME280;37474;59.468;18.040;2023-11-22T05:32:22;102398.34;;;-8.68;100.00
50380;BME280;37474;59.468;18.040;2023-11-22T05:34:50;102380.31;;;-8.92;100.00
50380;BME280;37474;59.468;18.040;2023-11-22T05:37:18;102377.91;;;-8.74;100.00
50380;BME280;37474;59.468;18.040;2023-11-22T05:39:47;102378.84;;;-8.72;100.00
50380;BME280;37474;59.468;18.040;2023-11-22T05:42:15;102370.91;;;-8.80;100.00
50380;BME280;37474;59.468;18.040;2023-11-22T05:44:44;102363.22;;;-8.66;100.00
50380;BME280;37474;59.468;18.040;2023-11-22T05:47:12;102367.84;;;-8.43;100.00
50380;BME280;37474;59.468;18.040;2023-11-22T05:49:42;102352.16;;;-8.70;100.00
50380;BME280;37474;59.468;18.040;2023-11-22T05:52:10;102348.78;;;-8.70;100.00
50380;BME280;37474;59.468;18.040;2023-11-22T05:54:38;102358.38;;;-8.63;100.00
50380;BME280;37474;59.468;18.040;2023-11-22T05:57:06;102355.69;;;-8.66;100.00
50380;BME280;37474;59.468;18.040;2023-11-22T05:59:36;102368.59;;;-8.44;100.00
50380;BME280;37474;59.468;18.040;2023-11-22T06:02:04;102352.97;;;-8.55;100.00
50380;BME280;37474;59.468;18.040;2023-11-22T06:04:32;102323.81;;;-8.51;100.00
50380;BME280;37474;59.468;18.040;2023-11-22T06:07:02;102361.88;;;-8.11;100.00
50380;BME280;37474;59.468;18.040;2023-11-22T06:09:31;102329.56;;;-8.03;100.00
50380;BME280;37474;59.468;18.040;2023-11-22T06:12:00;102349.88;;;-7.66;100.00
50380;BME280;37474;59.468;18.040;2023-11-22T06:14:28;102342.47;;;-7.45;100.00
50380;BME280;37474;59.468;18.040;2023-11-22T06:16:56;102331.03;;;-7.21;100.00
50380;BME280;37474;59.468;18.040;2023-11-22T06:19:24;102334.41;;;-6.83;100.00
50380;BME280;37474;59.468;18.040;2023-11-22T06:21:52;102328.31;;;-6.31;100.00
50380;BME280;37474;59.468;18.040;2023-11-22T06:24:23;102315.66;;;-6.12;100.00
50380;BME280;37474;59.468;18.040;2023-11-22T06:26:53;102298.41;;;-6.01;100.00
50380;BME280;37474;59.468;18.040;2023-11-22T06:29:21;102289.56;;;-5.92;100.00
50380;BME280;37474;59.468;18.040;2023-11-22T06:31:48;102290.84;;;-5.80;100.00
50380;BME280;37474;59.468;18.040;2023-11-22T06:34:17;102289.41;;;-5.74;100.00
50380;BME280;37474;59.468;18.040;2023-11-22T06:36:45;102289.16;;;-5.59;100.00
50380;BME280;37474;59.468;18.040;2023-11-22T06:39:15;102283.59;;;-5.50;100.00
50380;BME280;37474;59.468;18.040;2023-11-22T06:41:45;102262.84;;;-5.43;100.00
50380;BME280;37474;59.468;18.040;2023-11-22T06:44:14;102251.06;;;-5.43;100.00
50380;BME280;37474;59.468;18.040;2023-11-22T06:46:42;102261.13;;;-5.22;100.00
50380;BME280;37474;59.468;18.040;2023-11-22T06:49:10;102269.38;;;-5.26;100.00
50380;BME280;37474;59.468;18.040;2023-11-22T06:51:38;102238.66;;;-5.37;100.00
50380;BME280;37474;59.468;18.040;2023-11-22T06:54:06;102261.22;;;-5.19;100.00
50380;BME280;37474;59.468;18.040;2023-11-22T06:56:34;102239.69;;;-5.32;100.00
50380;BME280;37474;59.468;18.040;2023-11-22T06:59:04;102253.69;;;-5.17;100.00
50380;BME280;37474;59.468;18.040;2023-11-22T07:01:32;102261.84;;;-5.24;100.00
50380;BME280;37474;59.468;18.040;2023-11-22T07:04:00;102239.72;;;-5.30;100.00
50380;BME280;37474;59.468;18.040;2023-11-22T07:06:30;102224.38;;;-5.35;100.00
50380;BME280;37474;59.468;18.040;2023-11-22T07:08:58;102223.75;;;-5.29;100.00
50380;BME280;37474;59.468;18.040;2023-11-22T07:11:26;102223.88;;;-5.26;100.00
50380;BME280;37474;59.468;18.040;2023-11-22T07:13:57;102231.69;;;-5.20;100.00
50380;BME280;37474;59.468;18.040;2023-11-22T07:16:26;102227.53;;;-5.18;100.00
50380;BME280;37474;59.468;18.040;2023-11-22T07:18:55;102224.84;;;-5.22;100.00
50380;BME280;37474;59.468;18.040;2023-11-22T07:21:23;102224.44;;;-5.11;100.00
50380;BME280;37474;59.468;18.040;2023-11-22T07:23:51;102224.66;;;-5.05;100.00
50380;BME280;37474;59.468;18.040;2023-11-22T07:26:19;102222.38;;;-4.98;100.00
50380;BME280;37474;59.468;18.040;2023-11-22T07:28:47;102217.47;;;-4.94;100.00
50380;BME280;37474;59.468;18.040;2023-11-22T07:31:15;102209.94;;;-4.92;100.00
50380;BME280;37474;59.468;18.040;2023-11-22T07:33:45;102205.41;;;-4.77;100.00
50380;BME280;37474;59.468;18.040;2023-11-22T07:36:13;102212.28;;;-4.73;100.00
50380;BME280;37474;59.468;18.040;2023-11-22T07:38:42;102211.72;;;-4.66;100.00
50380;BME280;37474;59.468;18.040;2023-11-22T07:41:10;102204.31;;;-4.60;100.00
50380;BME280;37474;59.468;18.040;2023-11-22T07:43:39;102203.50;;;-4.59;100.00
50380;BME280;37474;59.468;18.040;2023-11-22T07:46:07;102177.94;;;-4.66;100.00
50380;BME280;37474;59.468;18.040;2023-11-22T07:48:40;102187.91;;;-4.45;100.00
50380;BME280;37474;59.468;18.040;2023-11-22T07:51:10;102187.88;;;-4.47;100.00
50380;BME280;37474;59.468;18.040;2023-11-22T07:53:38;102203.47;;;-4.35;100.00
50380;BME280;37474;59.468;18.040;2023-11-22T07:56:07;102185.84;;;-4.32;100.00
50380;BME280;37474;59.468;18.040;2023-11-22T07:58:36;102163.66;;;-4.39;100.00
50380;BME280;37474;59.468;18.040;2023-11-22T08:01:04;102173.38;;;-4.26;100.00
50380;BME280;37474;59.468;18.040;2023-11-22T08:03:33;102162.56;;;-4.21;100.00
50380;BME280;37474;59.468;18.040;2023-11-22T08:06:02;102163.84;;;-4.07;100.00
50380;BME280;37474;59.468;18.040;2023-11-22T08:08:33;102151.31;;;-4.03;100.00
50380;BME280;37474;59.468;18.040;2023-11-22T08:11:05;102139.19;;;-4.13;100.00
50380;BME280;37474;59.468;18.040;2023-11-22T08:13:42;102129.31;;;-4.05;100.00
50380;BME280;37474;59.468;18.040;2023-11-22T08:16:12;102128.41;;;-4.06;100.00
50380;BME280;37474;59.468;18.040;2023-11-22T08:18:41;102116.69;;;-4.04;100.00
50380;BME280;37474;59.468;18.040;2023-11-22T08:21:10;102105.84;;;-4.00;100.00
50380;BME280;37474;59.468;18.040;2023-11-22T08:23:40;102113.63;;;-3.93;100.00
50380;BME280;37474;59.468;18.040;2023-11-22T08:26:08;102085.69;;;-3.95;100.00
50380;BME280;37474;59.468;18.040;2023-11-22T08:28:39;102098.66;;;-3.84;100.00
50380;BME280;37474;59.468;18.040;2023-11-22T08:31:09;102087.81;;;-3.80;100.00
50380;BME280;37474;59.468;18.040;2023-11-22T08:33:37;102065.03;;;-3.79;100.00
50380;BME280;37474;59.468;18.040;2023-11-22T08:36:07;102059.41;;;-3.68;100.00
50380;BME280;37474;59.468;18.040;2023-11-22T08:38:36;102066.44;;;-3.60;100.00
50380;BME280;37474;59.468;18.040;2023-11-22T08:41:09;102053.91;;;-3.55;100.00
50380;BME280;37474;59.468;18.040;2023-11-22T08:43:41;102048.84;;;-3.54;100.00
50380;BME280;37474;59.468;18.040;2023-11-22T08:46:09;102038.00;;;-3.50;100.00
50380;BME280;37474;59.468;18.040;2023-11-22T08:48:41;102012.44;;;-3.56;100.00
50380;BME280;37474;59.468;18.040;2023-11-22T08:51:10;101999.13;;;-3.49;100.00
50380;BME280;37474;59.468;18.040;2023-11-22T08:53:39;102023.22;;;-3.33;100.00
50380;BME280;37474;59.468;18.040;2023-11-22T08:56:09;102006.91;;;-3.42;100.00
50380;BME280;37474;59.468;18.040;2023-11-22T08:58:37;102002.16;;;-3.30;100.00
50380;BME280;37474;59.468;18.040;2023-11-22T09:01:07;101999.09;;;-3.17;100.00
50380;BME280;37474;59.468;18.040;2023-11-22T09:03:35;101987.38;;;-3.12;100.00
50380;BME280;37474;59.468;18.040;2023-11-22T09:06:05;101964.53;;;-3.13;100.00
50380;BME280;37474;59.468;18.040;2023-11-22T09:08:34;101969.03;;;-3.02;100.00
50380;BME280;37474;59.468;18.040;2023-11-22T09:11:03;101946.94;;;-3.06;100.00
50380;BME280;37474;59.468;18.040;2023-11-22T09:13:35;101955.50;;;-3.01;100.00
50380;BME280;37474;59.468;18.040;2023-11-22T09:16:03;101968.53;;;-2.88;100.00
50380;BME280;37474;59.468;18.040;2023-11-22T09:18:32;101959.16;;;-2.89;100.00
50380;BME280;37474;59.468;18.040;2023-11-22T09:21:01;101956.94;;;-2.77;100.00
50380;BME280;37474;59.468;18.040;2023-11-22T09:23:29;101946.00;;;-2.73;100.00
50380;BME280;37474;59.468;18.040;2023-11-22T09:25:57;101931.69;;;-2.71;100.00
50380;BME280;37474;59.468;18.040;2023-11-22T09:28:27;101946.94;;;-2.70;100.00
50380;BME280;37474;59.468;18.040;2023-11-22T09:30:56;101943.53;;;-2.70;100.00
50380;BME280;37474;59.468;18.040;2023-11-22T09:33:33;101946.09;;;-2.70;100.00
50380;BME280;37474;59.468;18.040;2023-11-22T09:36:01;101936.03;;;-2.66;100.00
50380;BME280;37474;59.468;18.040;2023-11-22T09:38:35;101917.22;;;-2.74;100.00
50380;BME280;37474;59.468;18.040;2023-11-22T09:41:04;101918.16;;;-2.70;100.00
50380;BME280;37474;59.468;18.040;2023-11-22T09:43:34;101898.84;;;-2.63;100.00
50380;BME280;37474;59.468;18.040;2023-11-22T09:46:05;101878.41;;;-2.70;100.00
50380;BME280;37474;59.468;18.040;2023-11-22T09:48:36;101877.81;;;-2.56;100.00
50380;BME280;37474;59.468;18.040;2023-11-22T09:51:09;101876.25;;;-2.51;100.00
50380;BME280;37474;59.468;18.040;2023-11-22T09:53:51;101865.22;;;-2.53;100.00
50380;BME280;37474;59.468;18.040;2023-11-22T09:56:20;101844.06;;;-2.52;100.00
50380;BME280;37474;59.468;18.040;2023-11-22T09:58:51;101841.66;;;-2.45;100.00
50380;BME280;37474;59.468;18.040;2023-11-22T10:01:24;101824.69;;;-2.47;100.00
50380;BME280;37474;59.468;18.040;2023-11-22T10:03:55;101826.63;;;-2.35;100.00
50380;BME280;37474;59.468;18.040;2023-11-22T10:06:23;101821.72;;;-2.26;100.00
50380;BME280;37474;59.468;18.040;2023-11-22T10:08:51;101790.13;;;-2.41;100.00
50380;BME280;37474;59.468;18.040;2023-11-22T10:11:20;101798.88;;;-2.26;100.00
50380;BME280;37474;59.468;18.040;2023-11-22T10:13:49;101791.25;;;-2.26;100.00
50380;BME280;37474;59.468;18.040;2023-11-22T10:16:18;101778.53;;;-2.26;100.00
50380;BME280;37474;59.468;18.040;2023-11-22T10:18:49;101764.16;;;-2.26;100.00
50380;BME280;37474;59.468;18.040;2023-11-22T10:21:22;101750.59;;;-2.26;100.00
50380;BME280;37474;59.468;18.040;2023-11-22T10:23:53;101736.94;;;-2.33;100.00
50380;BME280;37474;59.468;18.040;2023-11-22T10:26:23;101727.66;;;-2.29;100.00
50380;BME280;37474;59.468;18.040;2023-11-22T10:28:52;101732.03;;;-2.22;100.00
50380;BME280;37474;59.468;18.040;2023-11-22T10:31:20;101723.59;;;-2.21;100.00
50380;BME280;37474;59.468;18.040;2023-11-22T10:33:50;101699.06;;;-2.19;100.00
50380;BME280;37474;59.468;18.040;2023-11-22T10:36:21;101693.22;;;-2.15;100.00
50380;BME280;37474;59.468;18.040;2023-11-22T10:38:50;101677.88;;;-2.20;100.00
50380;BME280;37474;59.468;18.040;2023-11-22T10:41:20;101659.38;;;-2.13;100.00
50380;BME280;37474;59.468;18.040;2023-11-22T10:43:50;101671.22;;;-2.12;100.00
50380;BME280;37474;59.468;18.040;2023-11-22T10:46:19;101657.81;;;-2.04;100.00
50380;BME280;37474;59.468;18.040;2023-11-22T10:48:49;101626.22;;;-2.20;100.00
50380;BME280;37474;59.468;18.040;2023-11-22T10:51:19;101631.41;;;-2.13;100.00
50380;BME280;37474;59.468;18.040;2023-11-22T10:53:49;101615.41;;;-2.07;100.00
50380;BME280;37474;59.468;18.040;2023-11-22T10:56:18;101623.88;;;-2.08;100.00
50380;BME280;37474;59.468;18.040;2023-11-22T10:58:50;101624.03;;;-1.97;100.00
50380;BME280;37474;59.468;18.040;2023-11-22T11:01:19;101602.88;;;-1.95;100.00
50380;BME280;37474;59.468;18.040;2023-11-22T11:03:55;101589.34;;;-1.94;100.00
50380;BME280;37474;59.468;18.040;2023-11-22T11:06:27;101584.31;;;-1.89;100.00
50380;BME280;37474;59.468;18.040;2023-11-22T11:09:01;101572.38;;;-1.95;100.00
50380;BME280;37474;59.468;18.040;2023-11-22T11:11:33;101574.28;;;-1.80;100.00
50380;BME280;37474;59.468;18.040;2023-11-22T11:14:03;101551.28;;;-1.89;100.00
50380;BME280;37474;59.468;18.040;2023-11-22T11:16:35;101547.16;;;-1.82;100.00
50380;BME280;37474;59.468;18.040;2023-11-22T11:19:05;101547.16;;;-1.81;100.00
50380;BME280;37474;59.468;18.040;2023-11-22T11:21:36;101510.56;;;-1.94;100.00
50380;BME280;37474;59.468;18.040;2023-11-22T11:24:04;101519.97;;;-1.87;100.00
50380;BME280;37474;59.468;18.040;2023-11-22T11:26:33;101490.34;;;-1.84;100.00
50380;BME280;37474;59.468;18.040;2023-11-22T11:29:02;101481.13;;;-1.73;100.00
50380;BME280;37474;59.468;18.040;2023-11-22T11:31:31;101461.63;;;-1.76;100.00
50380;BME280;37474;59.468;18.040;2023-11-22T11:34:06;101453.13;;;-1.79;100.00
50380;BME280;37474;59.468;18.040;2023-11-22T11:36:37;101438.75;;;-1.76;100.00
50380;BME280;37474;59.468;18.040;2023-11-22T11:39:07;101441.47;;;-1.59;100.00
50380;BME280;37474;59.468;18.040;2023-11-22T11:41:38;101439.72;;;-1.62;100.00
50380;BME280;37474;59.468;18.040;2023-11-22T11:44:07;101426.22;;;-1.59;100.00
50380;BME280;37474;59.468;18.040;2023-11-22T11:46:37;101410.97;;;-1.57;100.00
50380;BME280;37474;59.468;18.040;2023-11-22T11:49:12;101400.00;;;-1.53;100.00
50380;BME280;37474;59.468;18.040;2023-11-22T11:51:42;101383.91;;;-1.51;100.00
50380;BME280;37474;59.468;18.040;2023-11-22T11:54:12;101360.19;;;-1.48;100.00
50380;BME280;37474;59.468;18.040;2023-11-22T11:56:44;101355.16;;;-1.42;100.00
50380;BME280;37474;59.468;18.040;2023-11-22T11:59:13;101341.59;;;-1.44;100.00
50380;BME280;37474;59.468;18.040;2023-11-22T12:01:41;101355.16;;;-1.41;100.00
50380;BME280;37474;59.468;18.040;2023-11-22T12:04:10;101339.84;;;-1.47;100.00
50380;BME280;37474;59.468;18.040;2023-11-22T12:06:38;101336.56;;;-1.37;100.00
50380;BME280;37474;59.468;18.040;2023-11-22T12:09:09;101318.78;;;-1.32;100.00
50380;BME280;37474;59.468;18.040;2023-11-22T12:11:37;101301.78;;;-1.36;100.00
50380;BME280;37474;59.468;18.040;2023-11-22T12:14:07;101307.78;;;-1.26;100.00
50380;BME280;37474;59.468;18.040;2023-11-22T12:16:35;101327.25;;;-1.33;100.00
50380;BME280;37474;59.468;18.040;2023-11-22T12:19:04;101316.28;;;-1.24;100.00
50380;BME280;37474;59.468;18.040;2023-11-22T12:21:33;101310.28;;;-1.36;100.00
50380;BME280;37474;59.468;18.040;2023-11-22T12:24:01;101316.31;;;-1.17;100.00
50380;BME280;37474;59.468;18.040;2023-11-22T12:26:34;101297.69;;;-1.14;100.00
50380;BME280;37474;59.468;18.040;2023-11-22T12:29:02;101276.44;;;-1.19;100.00
50380;BME280;37474;59.468;18.040;2023-11-22T12:31:32;101270.59;;;-1.03;100.00
50380;BME280;37474;59.468;18.040;2023-11-22T12:34:03;101268.09;;;-0.97;100.00
50380;BME280;37474;59.468;18.040;2023-11-22T12:36:33;101274.91;;;-0.87;100.00
50380;BME280;37474;59.468;18.040;2023-11-22T12:39:03;101256.19;;;-1.01;100.00
50380;BME280;37474;59.468;18.040;2023-11-22T12:41:41;101241.78;;;-0.96;100.00